createdAt,value
2018-06-30T00:01:45.908Z,31.35
2018-06-30T00:04:12.955Z,30.08
2018-06-30T00:06:40.009Z,29.95
2018-06-30T00:09:07.058Z,27.33
2018-06-30T00:11:34.003Z,26.37
2018-06-30T00:14:02.175Z,36.60
2018-06-30T00:16:30.456Z,33.30
2018-06-30T00:18:57.451Z,34.78
2018-06-30T00:21:25.469Z,35.78
2018-06-30T00:23:52.525Z,31.83
2018-06-30T00:26:19.462Z,35.17
2018-06-30T00:28:46.921Z,33.70
2018-06-30T00:31:13.975Z,35.08
2018-06-30T00:33:41.022Z,37.05
2018-06-30T00:36:08.067Z,34.67
2018-06-30T00:38:35.120Z,33.47
2018-06-30T00:41:02.165Z,30.27
2018-06-30T00:43:29.213Z,35.20
2018-06-30T00:45:56.363Z,32.00
2018-06-30T00:48:23.416Z,34.45
2018-06-30T00:50:50.360Z,36.38
2018-06-30T00:53:17.411Z,34.92
2018-06-30T00:55:44.456Z,30.70
2018-06-30T00:58:11.503Z,34.22
2018-06-30T01:00:38.557Z,33.25
2018-06-30T01:03:05.600Z,38.20
2018-06-30T01:05:33.782Z,40.65
2018-06-30T01:08:00.722Z,35.55
2018-06-30T01:10:27.668Z,34.45
2018-06-30T01:12:54.717Z,31.65
2018-06-30T01:15:21.770Z,33.97
2018-06-30T01:17:48.814Z,36.80
2018-06-30T01:20:15.866Z,38.25
2018-06-30T01:22:42.917Z,36.70
2018-06-30T01:25:09.960Z,38.33
2018-06-30T01:27:37.010Z,40.97
2018-06-30T01:30:04.067Z,40.90
2018-06-30T01:32:31.107Z,35.70
2018-06-30T01:34:58.101Z,35.67
2018-06-30T01:37:25.101Z,37.55
2018-06-30T01:39:52.149Z,36.22
2018-06-30T01:42:19.917Z,36.05
2018-06-30T01:44:46.968Z,34.63
2018-06-30T01:47:14.013Z,33.92
2018-06-30T01:49:41.061Z,39.63
2018-06-30T01:52:08.115Z,35.45
2018-06-30T01:54:35.158Z,40.42
2018-06-30T01:57:02.309Z,38.42
2018-06-30T01:59:29.358Z,36.88
2018-06-30T02:01:56.411Z,43.00
2018-06-30T02:04:23.455Z,42.08
2018-06-30T02:06:50.503Z,39.30
2018-06-30T02:09:17.558Z,39.83
2018-06-30T02:11:44.609Z,40.15
2018-06-30T02:14:11.650Z,35.03
2018-06-30T02:16:38.704Z,36.58
2018-06-30T02:19:05.746Z,35.60
2018-06-30T02:21:32.758Z,35.75
2018-06-30T02:23:59.742Z,37.50
2018-06-30T02:26:26.791Z,37.60
2018-06-30T02:28:53.845Z,36.38
2018-06-30T02:31:20.887Z,33.38
2018-06-30T02:33:47.935Z,34.55
2018-06-30T02:36:14.990Z,33.83
2018-06-30T02:38:42.033Z,32.22
2018-06-30T02:41:08.985Z,34.63
2018-06-30T02:43:36.141Z,32.20
2018-06-30T02:46:03.329Z,31.45
2018-06-30T02:48:30.330Z,28.75
2018-06-30T02:50:57.378Z,34.45
2018-06-30T02:53:24.432Z,31.77
2018-06-30T02:55:51.475Z,29.20
2018-06-30T02:58:18.525Z,36.75
2018-06-30T03:00:45.582Z,30.52
2018-06-30T03:03:12.573Z,32.60
2018-06-30T03:05:40.388Z,31.83
2018-06-30T03:08:07.439Z,32.55
2018-06-30T03:10:34.491Z,27.60
2018-06-30T03:13:01.540Z,26.62
2018-06-30T03:15:28.582Z,27.85
2018-06-30T03:17:55.639Z,29.58
2018-06-30T03:20:22.576Z,29.48
2018-06-30T03:22:49.838Z,27.02
2018-06-30T03:25:16.880Z,25.40
2018-06-30T03:27:44.745Z,24.02
2018-06-30T03:30:11.899Z,24.98
2018-06-30T03:32:38.946Z,24.92
2018-06-30T03:35:06.005Z,24.75
2018-06-30T03:37:33.044Z,24.02
2018-06-30T03:39:59.995Z,25.10
2018-06-30T03:42:27.041Z,25.40
2018-06-30T03:44:54.087Z,26.17
2018-06-30T03:47:21.143Z,25.02
2018-06-30T03:49:48.184Z,23.85
2018-06-30T03:52:15.334Z,27.45
2018-06-30T03:54:42.489Z,26.98
2018-06-30T03:57:09.534Z,25.42
2018-06-30T03:59:36.991Z,28.77
2018-06-30T04:02:04.142Z,28.33
2018-06-30T04:04:31.198Z,28.70
2018-06-30T04:06:58.281Z,30.88
2018-06-30T04:09:26.008Z,34.65
2018-06-30T04:11:53.055Z,32.88
2018-06-30T04:14:20.050Z,30.90
2018-06-30T04:16:47.049Z,30.52
2018-06-30T04:19:14.102Z,31.80
2018-06-30T04:21:41.094Z,32.45
2018-06-30T04:24:08.099Z,32.30
2018-06-30T04:26:35.143Z,29.95
2018-06-30T04:29:02.191Z,31.40
2018-06-30T04:31:29.243Z,30.67
2018-06-30T04:33:56.288Z,31.25
2018-06-30T04:36:23.336Z,27.33
2018-06-30T04:38:50.393Z,25.85
2018-06-30T04:41:17.434Z,25.42
2018-06-30T04:43:44.481Z,25.23
2018-06-30T04:46:12.043Z,24.35
2018-06-30T04:48:39.091Z,24.95
2018-06-30T04:51:06.179Z,26.12
2018-06-30T04:53:33.191Z,24.65
2018-06-30T04:56:00.237Z,27.30
2018-06-30T04:58:27.389Z,23.98
2018-06-30T05:00:54.444Z,23.45
2018-06-30T05:03:21.485Z,24.27
2018-06-30T05:05:48.535Z,19.80
2018-06-30T05:08:15.594Z,20.27
2018-06-30T05:10:42.630Z,19.62
2018-06-30T05:13:10.814Z,21.60
2018-06-30T05:15:37.855Z,21.50
2018-06-30T05:18:07.269Z,16.75
2018-06-30T05:20:34.306Z,16.70
2018-06-30T05:23:01.356Z,16.08
2018-06-30T05:25:28.410Z,15.07
2018-06-30T05:27:56.067Z,15.43
2018-06-30T05:30:23.119Z,15.93
2018-06-30T05:32:50.199Z,13.77
2018-06-30T05:35:17.213Z,12.35
2018-06-30T05:37:44.262Z,13.75
2018-06-30T05:40:11.315Z,13.13
2018-06-30T05:42:38.359Z,10.88
2018-06-30T05:45:05.511Z,13.85
2018-06-30T05:47:32.558Z,11.45
2018-06-30T05:49:59.614Z,12.43
2018-06-30T05:52:26.557Z,11.10
2018-06-30T05:55:32.967Z,13.20
2018-06-30T05:57:59.978Z,13.43
2018-06-30T06:00:27.125Z,11.90
2018-06-30T06:02:54.177Z,12.40
2018-06-30T06:05:21.228Z,11.20
2018-06-30T06:07:48.224Z,11.80
2018-06-30T06:10:15.223Z,12.43
2018-06-30T06:12:42.269Z,13.32
2018-06-30T06:15:09.355Z,12.15
2018-06-30T06:17:36.465Z,11.98
2018-06-30T06:20:03.571Z,13.40
2018-06-30T06:22:30.562Z,13.45
2018-06-30T06:24:57.610Z,11.98
2018-06-30T06:27:24.711Z,12.40
2018-06-30T06:29:52.525Z,11.18
2018-06-30T06:32:19.581Z,12.90
2018-06-30T06:34:46.624Z,12.05
2018-06-30T06:37:13.675Z,12.23
2018-06-30T06:39:40.724Z,12.57
2018-06-30T06:42:07.769Z,12.18
2018-06-30T06:44:35.028Z,11.73
2018-06-30T06:47:02.071Z,11.40
2018-06-30T06:49:29.127Z,11.38
2018-06-30T06:51:56.989Z,11.27
2018-06-30T06:54:24.038Z,10.73
2018-06-30T06:56:51.091Z,10.70
2018-06-30T06:59:18.032Z,10.35
2018-06-30T07:01:44.977Z,9.13
2018-06-30T07:04:12.026Z,10.50
2018-06-30T07:06:39.080Z,11.25
2018-06-30T07:09:06.124Z,9.95
2018-06-30T07:11:33.274Z,12.57
2018-06-30T07:14:00.323Z,11.20
2018-06-30T07:16:27.377Z,12.13
2018-06-30T07:18:54.365Z,11.07
2018-06-30T07:21:21.469Z,9.23
2018-06-30T07:23:48.522Z,9.45
2018-06-30T07:26:15.939Z,12.48
2018-06-30T07:28:42.922Z,10.70
2018-06-30T07:31:09.976Z,11.57
2018-06-30T07:33:37.127Z,10.15
2018-06-30T07:36:04.279Z,12.75
2018-06-30T07:38:32.144Z,10.60
2018-06-30T07:40:59.298Z,10.40
2018-06-30T07:43:26.237Z,11.55
2018-06-30T07:45:53.286Z,9.95
2018-06-30T07:48:20.340Z,10.15
2018-06-30T07:50:47.383Z,9.68
2018-06-30T07:53:14.434Z,11.27
2018-06-30T07:55:41.486Z,11.12
2018-06-30T07:58:08.529Z,10.20
2018-06-30T08:00:35.629Z,10.25
2018-06-30T08:03:02.831Z,9.45
2018-06-30T08:05:29.884Z,10.13
2018-06-30T08:07:56.933Z,14.43
2018-06-30T08:10:23.977Z,12.32
2018-06-30T08:12:51.025Z,11.77
2018-06-30T08:15:18.016Z,8.60
2018-06-30T08:17:45.021Z,7.65
2018-06-30T08:20:12.074Z,13.68
2018-06-30T08:22:39.117Z,9.82
2018-06-30T08:25:06.166Z,8.05
2018-06-30T08:27:33.220Z,10.15
2018-06-30T08:30:00.263Z,7.22
2018-06-30T08:32:27.257Z,8.70
2018-06-30T08:37:27.554Z,10.15
2018-06-30T08:39:54.602Z,8.38
2018-06-30T08:42:21.659Z,18.15
2018-06-30T08:44:49.115Z,12.90
2018-06-30T08:47:16.265Z,9.65
2018-06-30T08:49:43.312Z,9.93
2018-06-30T08:52:10.771Z,9.15
2018-06-30T08:54:37.818Z,8.80
2018-06-30T08:57:04.906Z,9.25
2018-06-30T08:59:32.022Z,8.18
2018-06-30T09:01:58.966Z,7.15
2018-06-30T09:04:26.019Z,7.15
2018-06-30T09:06:53.475Z,9.15
2018-06-30T09:09:20.721Z,12.85
2018-06-30T09:11:47.906Z,8.20
2018-06-30T09:14:16.705Z,5.87
2018-06-30T09:16:43.710Z,7.47
2018-06-30T09:19:10.767Z,7.18
2018-06-30T09:21:38.837Z,6.60
2018-06-30T09:24:05.884Z,5.70
2018-06-30T09:26:32.930Z,5.78
2018-06-30T09:28:59.875Z,5.65
2018-06-30T09:31:26.925Z,8.05
2018-06-30T09:33:53.977Z,5.47
2018-06-30T09:36:21.022Z,7.28
2018-06-30T09:38:48.069Z,10.32
2018-06-30T09:41:15.018Z,9.50
2018-06-30T09:43:42.167Z,7.10
2018-06-30T09:46:09.214Z,9.02
2018-06-30T09:48:36.269Z,7.87
2018-06-30T09:51:03.351Z,6.80
2018-06-30T09:53:30.361Z,6.50
2018-06-30T09:55:57.414Z,4.03
2018-06-30T09:58:24.457Z,7.50
2018-06-30T10:00:51.716Z,10.43
2018-06-30T10:03:18.967Z,5.95
2018-06-30T10:05:46.017Z,7.50
2018-06-30T10:08:13.020Z,8.15
2018-06-30T10:10:40.014Z,7.12
2018-06-30T10:13:07.055Z,4.60
2018-06-30T10:15:34.107Z,11.12
2018-06-30T10:18:01.257Z,4.60
2018-06-30T10:20:28.202Z,5.68
2018-06-30T10:22:55.249Z,8.23
2018-06-30T10:25:22.304Z,7.40
2018-06-30T10:27:49.294Z,10.38
2018-06-30T10:30:16.299Z,7.53
2018-06-30T10:32:43.342Z,6.60
2018-06-30T10:35:12.233Z,6.10
2018-06-30T10:37:39.288Z,5.20
2018-06-30T10:40:06.438Z,6.40
2018-06-30T10:42:39.266Z,5.70
2018-06-30T10:45:06.422Z,7.68
2018-06-30T10:47:34.542Z,6.57
2018-06-30T10:50:01.846Z,7.28
2018-06-30T10:52:28.843Z,8.50
2018-06-30T10:54:56.718Z,5.07
2018-06-30T10:57:24.274Z,5.45
2018-06-30T11:00:07.502Z,5.28
2018-06-30T11:02:34.656Z,7.45
2018-06-30T11:05:03.075Z,13.18
2018-06-30T11:07:31.214Z,8.23
2018-06-30T11:10:00.612Z,10.25
2018-06-30T11:12:27.665Z,9.25
2018-06-30T11:14:54.710Z,7.35
2018-06-30T11:17:21.761Z,7.57
2018-06-30T11:19:48.811Z,7.37
2018-06-30T11:22:15.900Z,7.97
2018-06-30T11:24:44.649Z,8.77
2018-06-30T11:27:11.567Z,8.63
2018-06-30T11:29:40.189Z,6.70
2018-06-30T11:32:11.174Z,6.80
2018-06-30T11:34:39.500Z,8.80
2018-06-30T11:37:06.855Z,7.05
2018-06-30T11:39:33.897Z,7.18
2018-06-30T11:42:01.868Z,11.38
2018-06-30T11:44:29.027Z,7.32
2018-06-30T11:46:56.280Z,7.40
2018-06-30T11:49:23.579Z,7.85
2018-06-30T11:51:50.575Z,8.40
2018-06-30T11:54:17.625Z,10.25
2018-06-30T11:56:44.678Z,9.23
2018-06-30T11:59:11.828Z,10.35
2018-06-30T12:01:38.870Z,8.88
2018-06-30T12:04:06.134Z,12.40
2018-06-30T12:06:33.174Z,10.85
2018-06-30T12:09:00.429Z,10.30
2018-06-30T12:11:27.474Z,10.02
2018-06-30T12:13:54.829Z,11.10
2018-06-30T12:16:21.883Z,9.07
2018-06-30T12:18:48.876Z,11.88
2018-06-30T12:21:15.974Z,12.68
2018-06-30T12:23:43.126Z,13.00
2018-06-30T12:26:10.180Z,11.32
2018-06-30T12:28:37.225Z,13.75
2018-06-30T12:31:04.579Z,10.85
2018-06-30T12:33:31.633Z,13.82
2018-06-30T12:35:58.676Z,11.88
2018-06-30T12:38:25.723Z,12.80
2018-06-30T12:40:52.876Z,11.10
2018-06-30T12:43:19.772Z,11.60
2018-06-30T12:45:46.804Z,10.85
2018-06-30T12:48:13.823Z,12.95
2018-06-30T12:50:41.172Z,10.95
2018-06-30T12:53:08.375Z,11.98
2018-06-30T12:55:36.606Z,12.65
2018-06-30T12:58:03.650Z,15.65
2018-06-30T13:00:30.698Z,16.77
2018-06-30T13:02:57.752Z,12.55
2018-06-30T13:05:24.999Z,10.90
2018-06-30T13:07:51.945Z,16.50
2018-06-30T13:10:18.993Z,9.98
2018-06-30T13:12:46.047Z,9.90
2018-06-30T13:15:13.091Z,7.72
2018-06-30T13:17:40.373Z,9.93
2018-06-30T13:20:07.596Z,8.02
2018-06-30T13:22:34.650Z,8.43
2018-06-30T13:25:01.802Z,6.55
2018-06-30T13:27:28.889Z,7.72
2018-06-30T13:29:56.105Z,6.50
2018-06-30T13:32:23.147Z,8.27
2018-06-30T13:34:50.298Z,15.05
2018-06-30T13:37:17.346Z,5.90
2018-06-30T13:39:44.445Z,6.53
2018-06-30T13:42:11.552Z,8.75
2018-06-30T13:44:39.412Z,7.93
2018-06-30T13:47:06.466Z,8.15
2018-06-30T13:49:33.647Z,7.45
2018-06-30T13:52:00.867Z,7.62
2018-06-30T13:54:27.920Z,7.75
2018-06-30T13:56:55.377Z,8.40
2018-06-30T13:59:22.703Z,9.23
2018-06-30T14:01:49.882Z,9.07
2018-06-30T14:04:16.788Z,11.55
2018-06-30T14:06:43.771Z,9.52
2018-06-30T14:09:10.827Z,8.52
2018-06-30T14:11:38.283Z,8.32
2018-06-30T14:14:05.326Z,11.12
2018-06-30T14:16:32.439Z,9.70
2018-06-30T14:18:59.761Z,9.73
2018-06-30T14:21:26.890Z,7.78
2018-06-30T14:23:54.959Z,9.30
2018-06-30T14:26:22.002Z,7.10
2018-06-30T14:28:49.153Z,10.00
2018-06-30T14:31:17.124Z,8.45
2018-06-30T14:33:45.299Z,10.00
2018-06-30T14:36:12.345Z,7.10
2018-06-30T14:38:39.297Z,7.60
2018-06-30T14:41:06.346Z,10.25
2018-06-30T14:43:33.498Z,8.80
2018-06-30T14:46:00.644Z,7.75
2018-06-30T14:48:27.798Z,7.72
2018-06-30T14:50:55.360Z,9.35
2018-06-30T14:53:22.505Z,10.18
2018-06-30T14:55:49.553Z,7.50
2018-06-30T14:58:16.611Z,9.70
2018-06-30T15:00:43.649Z,9.35
2018-06-30T15:03:10.699Z,11.75
2018-06-30T15:05:37.849Z,7.22
2018-06-30T15:08:04.902Z,7.90
2018-06-30T15:10:32.407Z,15.57
2018-06-30T15:12:59.404Z,12.27
2018-06-30T15:15:26.452Z,13.23
2018-06-30T15:17:53.447Z,14.43
2018-06-30T15:20:20.552Z,15.55
2018-06-30T15:22:47.905Z,13.27
2018-06-30T15:25:14.962Z,13.38
2018-06-30T15:27:42.003Z,13.23
2018-06-30T15:30:09.294Z,13.62
2018-06-30T15:32:36.304Z,12.45
2018-06-30T15:35:03.353Z,11.45
2018-06-30T15:37:31.117Z,11.77
2018-06-30T15:39:58.173Z,15.02
2018-06-30T15:42:25.214Z,11.90
2018-06-30T15:44:52.674Z,10.05
2018-06-30T15:47:19.732Z,10.40
2018-06-30T15:49:46.775Z,12.18
2018-06-30T15:52:13.818Z,9.52
2018-06-30T15:54:40.867Z,9.57
2018-06-30T15:57:08.019Z,8.38
2018-06-30T15:59:35.759Z,12.50
2018-06-30T16:02:03.041Z,9.88
2018-06-30T16:04:30.293Z,8.82
2018-06-30T16:06:57.755Z,11.75
2018-06-30T16:09:25.146Z,6.62
2018-06-30T16:11:52.153Z,7.47
2018-06-30T16:14:20.435Z,10.57
2018-06-30T16:16:47.479Z,6.43
2018-06-30T16:19:14.476Z,5.53
2018-06-30T16:21:44.545Z,4.50
2018-06-30T16:24:11.803Z,4.07
2018-06-30T16:26:38.846Z,5.32
2018-06-30T16:29:06.001Z,8.05
2018-06-30T16:31:33.046Z,5.80
2018-06-30T16:34:00.198Z,4.22
2018-06-30T16:36:27.252Z,3.67
2018-06-30T16:38:54.296Z,5.50
2018-06-30T16:41:21.340Z,16.73
2018-06-30T16:43:48.467Z,4.25
2018-06-30T16:46:15.439Z,3.92
2018-06-30T16:48:42.486Z,5.00
2018-06-30T16:51:09.544Z,4.37
2018-06-30T16:53:36.530Z,4.97
2018-06-30T16:56:03.635Z,4.32
2018-06-30T16:58:30.618Z,4.55
2018-06-30T17:00:57.626Z,4.82
2018-06-30T17:03:24.680Z,9.38
2018-06-30T17:05:51.724Z,7.75
2018-06-30T17:08:18.772Z,6.78
2018-06-30T17:10:45.827Z,5.25
2018-06-30T17:13:13.126Z,10.00
2018-06-30T17:15:40.131Z,5.55
2018-06-30T17:18:07.374Z,5.10
2018-06-30T17:20:34.429Z,5.70
2018-06-30T17:23:01.474Z,4.50
2018-06-30T17:25:28.733Z,5.05
2018-06-30T17:27:55.774Z,4.50
2018-06-30T17:30:22.726Z,4.87
2018-06-30T17:32:49.879Z,5.22
2018-06-30T17:35:17.104Z,4.22
2018-06-30T17:37:44.090Z,4.20
2018-06-30T17:40:12.116Z,4.20
2018-06-30T17:42:39.171Z,7.60
2018-06-30T17:45:06.216Z,4.18
2018-06-30T17:47:33.260Z,4.85
2018-06-30T17:50:00.317Z,4.78
2018-06-30T17:52:27.357Z,6.37
2018-06-30T17:54:54.407Z,6.18
2018-06-30T17:57:21.661Z,5.95
2018-06-30T17:59:48.755Z,4.30
2018-06-30T18:02:15.859Z,11.48
2018-06-30T18:04:43.727Z,5.45
2018-06-30T18:07:10.878Z,7.82
2018-06-30T18:09:38.028Z,5.00
2018-06-30T18:12:05.901Z,6.53
2018-06-30T18:14:33.561Z,4.85
2018-06-30T18:17:00.607Z,7.40
2018-06-30T18:19:28.168Z,5.55
2018-06-30T18:21:55.216Z,9.05
2018-06-30T18:24:22.165Z,5.85
2018-06-30T18:26:49.162Z,8.50
2018-06-30T18:29:16.372Z,6.20
2018-06-30T18:31:44.432Z,6.60
2018-06-30T18:34:11.490Z,8.40
2018-06-30T18:36:38.736Z,7.45
2018-06-30T18:39:12.977Z,6.45
2018-06-30T18:41:40.055Z,6.18
2018-06-30T18:44:07.052Z,6.20
2018-06-30T18:46:35.047Z,7.53
2018-06-30T18:49:02.076Z,6.05
2018-06-30T18:51:29.226Z,5.65
2018-06-30T18:53:56.577Z,5.40
2018-06-30T18:56:23.625Z,5.80
2018-06-30T18:58:50.679Z,6.93
2018-06-30T19:01:17.723Z,8.65
2018-06-30T19:03:44.772Z,9.05
2018-06-30T19:06:12.024Z,8.43
2018-06-30T19:08:41.278Z,7.00
2018-06-30T19:11:08.374Z,11.90
2018-06-30T19:13:35.528Z,8.25
2018-06-30T19:16:02.628Z,9.20
2018-06-30T19:18:29.729Z,11.95
2018-06-30T19:20:58.357Z,7.97
2018-06-30T19:23:25.460Z,8.27
2018-06-30T19:25:52.416Z,13.90
2018-06-30T19:28:20.276Z,7.43
2018-06-30T19:30:47.329Z,8.00
2018-06-30T19:33:14.272Z,8.13
2018-06-30T19:35:41.323Z,9.25
2018-06-30T19:40:49.854Z,9.18
2018-06-30T19:43:17.873Z,10.68
2018-06-30T19:45:44.906Z,8.95
2018-06-30T19:48:11.920Z,9.55
2018-06-30T19:50:38.973Z,11.52
2018-06-30T19:53:06.937Z,10.18
2018-06-30T19:55:33.989Z,10.68
2018-06-30T19:58:01.047Z,10.88
2018-06-30T20:00:28.085Z,13.10
2018-06-30T20:02:55.089Z,15.48
2018-06-30T20:05:22.080Z,13.50
2018-06-30T20:07:49.372Z,11.25
2018-06-30T20:10:17.508Z,12.52
2018-06-30T20:12:45.889Z,15.18
2018-06-30T20:15:12.944Z,11.15
2018-06-30T20:17:40.007Z,13.55
2018-06-30T20:20:07.138Z,13.30
2018-06-30T20:22:34.187Z,14.55
2018-06-30T20:25:01.442Z,13.00
2018-06-30T20:27:28.490Z,12.55
2018-06-30T20:29:55.644Z,16.33
2018-06-30T20:32:22.897Z,14.82
2018-06-30T20:35:07.534Z,14.50
2018-06-30T20:37:36.247Z,14.50
2018-06-30T20:40:03.294Z,14.38
2018-06-30T20:42:30.346Z,12.65
2018-06-30T20:44:58.823Z,15.15
2018-06-30T20:47:25.878Z,14.38
2018-06-30T20:49:52.918Z,15.48
2018-06-30T20:52:19.972Z,16.70
2018-06-30T20:54:47.833Z,15.00
2018-06-30T20:57:14.883Z,15.52
2018-06-30T20:59:41.936Z,14.95
2018-06-30T21:02:08.981Z,16.30
2018-06-30T21:04:36.029Z,16.25
2018-06-30T21:07:05.279Z,16.55
2018-06-30T21:09:32.583Z,18.17
2018-06-30T21:11:59.536Z,16.00
2018-06-30T21:14:26.783Z,15.82
2018-06-30T21:16:53.731Z,15.85
2018-06-30T21:19:20.682Z,15.73
2018-06-30T21:21:48.032Z,15.27
2018-06-30T21:24:15.798Z,15.30
2018-06-30T21:26:43.153Z,14.45
2018-06-30T21:29:10.211Z,15.85
2018-06-30T21:31:37.250Z,17.10
2018-06-30T21:34:04.298Z,16.52
2018-06-30T21:36:31.424Z,13.80
2018-06-30T21:38:58.396Z,15.98
2018-06-30T21:41:25.443Z,15.23
2018-06-30T21:43:52.499Z,14.45
2018-06-30T21:46:19.652Z,18.73
2018-06-30T21:48:46.921Z,15.02
